createdAt,value
2018-09-18T00:00:40.622Z,12.80
2018-09-18T00:03:08.564Z,12.90
2018-09-18T00:05:36.680Z,12.90
2018-09-18T00:08:04.674Z,12.80
2018-09-18T00:10:33.046Z,12.80
2018-09-18T00:13:01.697Z,12.80
2018-09-18T00:15:29.739Z,12.80
2018-09-18T00:17:57.759Z,12.80
2018-09-18T00:20:25.750Z,12.80
2018-09-18T00:22:53.682Z,12.80
2018-09-18T00:25:21.775Z,12.90
2018-09-18T00:27:50.797Z,12.80
2018-09-18T00:30:18.750Z,12.80
2018-09-18T00:32:46.798Z,12.80
2018-09-18T00:35:14.957Z,12.80
2018-09-18T00:37:43.606Z,12.80
2018-09-18T00:40:11.621Z,12.80
2018-09-18T00:42:39.616Z,12.80
2018-09-18T00:45:07.658Z,12.80
2018-09-18T00:47:36.287Z,12.70
2018-09-18T00:50:04.991Z,12.60
2018-09-18T00:52:33.037Z,12.60
2018-09-18T00:55:01.070Z,12.60
2018-09-18T00:57:30.455Z,12.50
2018-09-18T00:59:58.502Z,12.60
2018-09-18T01:02:26.596Z,12.50
2018-09-18T01:04:55.624Z,12.50
2018-09-18T01:07:24.389Z,12.50
2018-09-18T01:09:52.493Z,12.50
2018-09-18T01:12:20.546Z,12.40
2018-09-18T01:14:48.658Z,12.40
2018-09-18T01:17:16.763Z,12.40
2018-09-18T01:19:44.923Z,12.40
2018-09-18T01:22:13.046Z,12.30
2018-09-18T01:24:41.229Z,12.30
2018-09-18T01:27:09.395Z,12.30
2018-09-18T01:29:37.594Z,12.30
2018-09-18T01:32:05.679Z,12.30
2018-09-18T01:34:33.788Z,12.30
2018-09-18T01:37:01.919Z,12.30
2018-09-18T01:39:30.626Z,12.20
2018-09-18T01:41:58.718Z,12.20
2018-09-18T01:44:26.791Z,12.30
2018-09-18T01:46:54.734Z,12.20
2018-09-18T01:49:22.755Z,12.30
2018-09-18T01:51:50.780Z,12.30
2018-09-18T01:54:18.902Z,12.20
2018-09-18T01:56:46.924Z,12.20
2018-09-18T01:59:14.972Z,12.20
2018-09-18T02:01:42.895Z,12.20
2018-09-18T02:04:11.114Z,12.20
2018-09-18T02:06:39.890Z,12.20
2018-09-18T02:09:08.276Z,12.20
2018-09-18T02:11:36.254Z,12.20
2018-09-18T02:14:04.293Z,12.30
2018-09-18T02:16:32.322Z,12.30
2018-09-18T02:19:00.425Z,12.30
2018-09-18T02:21:28.478Z,12.30
2018-09-18T02:23:57.769Z,12.40
2018-09-18T02:26:26.198Z,12.50
2018-09-18T02:28:54.586Z,12.50
2018-09-18T02:31:22.601Z,12.50
2018-09-18T02:33:50.745Z,12.50
2018-09-18T02:36:19.541Z,12.50
2018-09-18T02:38:47.532Z,12.40
2018-09-18T02:41:15.670Z,12.50
2018-09-18T02:43:43.670Z,12.50
2018-09-18T02:46:12.272Z,12.50
2018-09-18T02:48:40.384Z,12.40
2018-09-18T02:51:08.340Z,12.40
2018-09-18T02:53:37.511Z,12.40
2018-09-18T02:56:05.687Z,12.40
2018-09-18T02:58:33.586Z,12.40
2018-09-18T03:01:01.786Z,12.40
2018-09-18T03:03:30.046Z,12.30
2018-09-18T03:05:58.181Z,12.30
2018-09-18T03:08:26.191Z,12.40
2018-09-18T03:10:54.777Z,12.40
2018-09-18T03:13:22.699Z,12.40
2018-09-18T03:15:50.850Z,12.40
2018-09-18T03:18:19.636Z,12.30
2018-09-18T03:20:47.614Z,12.40
2018-09-18T03:23:15.670Z,12.40
2018-09-18T03:25:43.673Z,12.30
2018-09-18T03:28:11.914Z,12.20
2018-09-18T03:30:40.061Z,12.20
2018-09-18T03:33:08.237Z,12.30
2018-09-18T03:35:36.176Z,12.40
2018-09-18T03:38:04.146Z,12.30
2018-09-18T03:40:32.255Z,12.30
2018-09-18T03:43:00.868Z,12.20
2018-09-18T03:45:28.868Z,12.20
2018-09-18T03:47:56.761Z,12.20
2018-09-18T03:50:24.856Z,12.30
2018-09-18T03:52:52.889Z,12.40
2018-09-18T03:55:20.986Z,12.40
2018-09-18T03:57:48.964Z,12.30
2018-09-18T04:00:16.909Z,12.30
2018-09-18T04:02:45.042Z,12.30
2018-09-18T04:05:12.911Z,12.40
2018-09-18T04:07:40.975Z,12.40
2018-09-18T04:10:08.990Z,12.30
2018-09-18T04:12:36.970Z,12.40
2018-09-18T04:15:10.568Z,12.40
2018-09-18T04:17:38.794Z,12.30
2018-09-18T04:20:06.918Z,12.40
2018-09-18T04:22:34.948Z,12.30
2018-09-18T04:25:03.142Z,12.30
2018-09-18T04:27:32.155Z,12.30
2018-09-18T04:30:00.306Z,12.30
2018-09-18T04:32:28.233Z,12.30
2018-09-18T04:34:56.247Z,12.30
2018-09-18T04:37:24.264Z,12.40
2018-09-18T04:39:52.231Z,12.40
2018-09-18T04:42:20.962Z,12.40
2018-09-18T04:44:48.994Z,12.40
2018-09-18T04:47:16.971Z,12.30
2018-09-18T04:49:44.938Z,12.40
2018-09-18T04:52:13.067Z,12.40
2018-09-18T04:54:41.230Z,12.30
2018-09-18T04:57:09.313Z,12.40
2018-09-18T04:59:37.508Z,12.40
2018-09-18T05:02:05.776Z,12.40
2018-09-18T05:04:34.184Z,12.40
2018-09-18T05:07:02.253Z,12.40
2018-09-18T05:09:30.373Z,12.50
2018-09-18T05:11:58.442Z,12.50
2018-09-18T05:14:26.463Z,12.50
2018-09-18T05:16:54.474Z,12.60
2018-09-18T05:19:23.529Z,12.70
2018-09-18T05:21:52.256Z,12.70
2018-09-18T05:24:20.394Z,12.70
2018-09-18T05:26:48.440Z,12.80
2018-09-18T05:29:16.495Z,12.90
2018-09-18T05:31:45.226Z,12.90
2018-09-18T05:34:13.700Z,12.90
2018-09-18T05:36:43.146Z,12.90
2018-09-18T05:39:11.936Z,13.00
2018-09-18T05:41:40.296Z,13.10
2018-09-18T05:44:08.935Z,13.20
2018-09-18T05:46:37.268Z,13.30
2018-09-18T05:49:05.628Z,13.30
2018-09-18T05:51:34.798Z,13.30
2018-09-18T05:54:03.148Z,13.50
2018-09-18T05:56:31.352Z,13.50
2018-09-18T05:58:59.499Z,13.60
2018-09-18T06:01:27.584Z,13.60
2018-09-18T06:03:55.566Z,13.60
2018-09-18T06:06:23.728Z,13.70
2018-09-18T06:08:52.916Z,13.70
2018-09-18T06:11:21.166Z,13.60
2018-09-18T06:13:49.265Z,14.50
2018-09-18T06:16:17.295Z,15.50
2018-09-18T06:18:45.383Z,15.50
2018-09-18T06:21:13.671Z,15.00
2018-09-18T06:23:42.641Z,14.70
2018-09-18T06:26:10.714Z,14.50
2018-09-18T06:28:38.960Z,14.30
2018-09-18T06:31:06.997Z,14.30
2018-09-18T06:33:35.023Z,14.30
2018-09-18T06:36:03.796Z,14.30
2018-09-18T06:38:31.730Z,14.30
2018-09-18T06:41:00.304Z,14.30
2018-09-18T06:43:29.795Z,14.30
2018-09-18T06:45:58.803Z,14.30
2018-09-18T06:48:26.883Z,14.40
2018-09-18T06:50:56.193Z,14.50
2018-09-18T06:53:24.951Z,14.50
2018-09-18T06:55:54.303Z,14.50
2018-09-18T06:58:22.397Z,14.60
2018-09-18T07:00:50.287Z,14.70
2018-09-18T07:03:18.602Z,14.80
2018-09-18T07:05:46.693Z,14.80
2018-09-18T07:08:15.686Z,14.80
2018-09-18T07:10:43.947Z,14.90
2018-09-18T07:13:12.064Z,14.80
2018-09-18T07:15:41.660Z,15.00
2018-09-18T07:18:09.990Z,14.90
2018-09-18T07:20:38.486Z,14.90
2018-09-18T07:23:06.655Z,14.90
2018-09-18T07:25:34.765Z,15.00
2018-09-18T07:28:03.134Z,15.10
2018-09-18T07:30:31.066Z,15.30
2018-09-18T07:32:59.091Z,15.40
2018-09-18T07:35:27.741Z,15.40
2018-09-18T07:37:55.949Z,15.50
2018-09-18T07:40:25.010Z,15.50
2018-09-18T07:42:53.056Z,15.50
2018-09-18T07:45:21.280Z,15.50
2018-09-18T07:47:49.370Z,15.50
2018-09-18T07:50:17.587Z,15.50
2018-09-18T07:52:46.109Z,15.60
2018-09-18T07:55:14.865Z,15.60
2018-09-18T07:57:43.025Z,15.70
2018-09-18T08:02:49.708Z,15.90
2018-09-18T08:05:17.813Z,16.00
2018-09-18T08:07:47.058Z,16.00
2018-09-18T08:10:15.426Z,16.10
2018-09-18T08:12:44.319Z,16.10
2018-09-18T08:15:12.987Z,16.30
2018-09-18T08:17:41.203Z,16.30
2018-09-18T08:20:09.165Z,16.40
2018-09-18T08:22:43.704Z,16.40
2018-09-18T08:25:11.710Z,16.40
2018-09-18T08:27:40.778Z,16.40
2018-09-18T08:30:08.805Z,16.40
2018-09-18T08:32:37.480Z,16.40
2018-09-18T08:35:05.688Z,16.40
2018-09-18T08:37:34.126Z,16.40
2018-09-18T08:40:02.493Z,16.60
2018-09-18T08:42:30.519Z,16.70
2018-09-18T08:44:58.459Z,16.80
2018-09-18T08:47:26.748Z,16.90
2018-09-18T08:49:55.047Z,17.10
2018-09-18T08:52:23.320Z,17.20
2018-09-18T08:54:51.503Z,17.30
2018-09-18T08:57:19.553Z,17.10
2018-09-18T08:59:47.611Z,16.90
2018-09-18T09:02:15.724Z,16.70
2018-09-18T09:04:43.836Z,16.70
2018-09-18T09:07:11.886Z,16.60
2018-09-18T09:09:40.176Z,16.60
2018-09-18T09:12:08.144Z,16.70
2018-09-18T09:14:37.611Z,16.80
2018-09-18T09:17:05.627Z,16.90
2018-09-18T09:19:33.743Z,17.00
2018-09-18T09:22:03.389Z,17.10
2018-09-18T09:24:31.480Z,17.10
2018-09-18T09:26:59.866Z,17.00
2018-09-18T09:29:28.055Z,17.10
2018-09-18T09:31:55.961Z,17.10
2018-09-18T09:34:23.984Z,17.00
2018-09-18T09:36:52.115Z,17.00
2018-09-18T09:39:20.043Z,17.10
2018-09-18T09:41:48.658Z,17.20
2018-09-18T09:44:17.765Z,17.20
2018-09-18T09:46:45.771Z,17.20
2018-09-18T09:49:14.439Z,17.30
2018-09-18T09:51:42.805Z,17.50
2018-09-18T09:54:10.773Z,17.90
2018-09-18T09:56:38.919Z,18.10
2018-09-18T09:59:07.130Z,18.50
2018-09-18T10:01:40.919Z,18.60
2018-09-18T10:04:08.910Z,18.80
2018-09-18T10:06:39.266Z,18.90
2018-09-18T10:09:09.675Z,18.80
2018-09-18T10:11:38.654Z,18.80
2018-09-18T10:14:06.912Z,18.70
2018-09-18T10:16:35.253Z,18.50
2018-09-18T10:19:03.688Z,18.40
2018-09-18T10:21:32.283Z,18.40
2018-09-18T10:24:00.728Z,18.40
2018-09-18T10:29:03.833Z,18.40
2018-09-18T10:31:32.962Z,18.50
2018-09-18T10:34:01.037Z,18.70
2018-09-18T10:36:29.094Z,18.80
2018-09-18T10:38:58.086Z,18.80
2018-09-18T10:41:26.996Z,19.00
2018-09-18T10:43:57.160Z,19.00
2018-09-18T10:46:25.255Z,19.30
2018-09-18T10:48:56.773Z,19.40
2018-09-18T10:51:25.459Z,19.60
2018-09-18T10:53:55.072Z,19.80
2018-09-18T10:56:23.946Z,20.00
2018-09-18T10:58:51.880Z,19.90
2018-09-18T11:01:19.978Z,20.00
2018-09-18T11:03:48.009Z,20.00
2018-09-18T11:06:16.699Z,20.10
2018-09-18T11:08:44.831Z,20.00
2018-09-18T11:11:13.086Z,19.90
2018-09-18T11:13:41.305Z,19.90
2018-09-18T11:16:10.417Z,19.90
2018-09-18T11:18:39.225Z,20.00
2018-09-18T11:21:07.993Z,20.20
2018-09-18T11:23:36.288Z,20.30
2018-09-18T11:26:04.394Z,20.30
2018-09-18T11:28:32.653Z,20.20
2018-09-18T11:31:01.152Z,20.10
2018-09-18T11:33:29.306Z,20.20
2018-09-18T11:35:57.742Z,20.30
2018-09-18T11:38:26.171Z,20.30
2018-09-18T11:40:54.659Z,20.40
2018-09-18T11:43:22.747Z,20.20
2018-09-18T11:45:50.963Z,20.10
2018-09-18T11:48:20.359Z,20.10
2018-09-18T11:50:49.137Z,20.00
2018-09-18T11:53:17.698Z,20.00
2018-09-18T11:55:47.399Z,20.00
2018-09-18T11:58:16.418Z,19.80
2018-09-18T12:00:45.250Z,19.70
2018-09-18T12:03:13.434Z,19.70
2018-09-18T12:05:41.556Z,19.80
2018-09-18T12:08:09.618Z,19.80
2018-09-18T12:10:37.683Z,19.90
2018-09-18T12:13:05.903Z,19.90
2018-09-18T12:15:34.006Z,20.00
2018-09-18T12:18:02.412Z,20.00
2018-09-18T12:20:30.592Z,20.00
2018-09-18T12:22:58.829Z,20.20
2018-09-18T12:25:26.944Z,20.30
2018-09-18T12:27:56.299Z,20.40
2018-09-18T12:30:24.397Z,20.50
2018-09-18T12:32:53.080Z,20.70
2018-09-18T12:35:21.819Z,21.20
2018-09-18T12:37:49.936Z,22.20
2018-09-18T12:40:18.295Z,23.10
2018-09-18T12:42:47.586Z,23.60
2018-09-18T12:45:17.315Z,23.70
2018-09-18T12:47:45.764Z,24.10
2018-09-18T12:50:14.434Z,24.40
2018-09-18T12:52:42.495Z,24.90
2018-09-18T12:55:11.325Z,25.40
2018-09-18T12:57:39.349Z,25.60
2018-09-18T13:00:09.408Z,26.10
2018-09-18T13:02:37.615Z,26.40
2018-09-18T13:05:05.848Z,26.50
2018-09-18T13:07:33.846Z,26.70
2018-09-18T13:10:02.046Z,27.00
2018-09-18T13:12:29.993Z,26.60
2018-09-18T13:14:58.084Z,26.40
2018-09-18T13:17:26.515Z,25.90
2018-09-18T13:19:54.938Z,25.70
2018-09-18T13:22:23.260Z,25.90
2018-09-18T13:24:51.554Z,26.30
2018-09-18T13:27:19.668Z,26.40
2018-09-18T13:29:47.722Z,26.50
2018-09-18T13:32:15.939Z,26.60
2018-09-18T13:34:43.935Z,26.20
2018-09-18T13:37:11.929Z,25.40
2018-09-18T13:39:40.181Z,24.60
2018-09-18T13:42:08.204Z,24.20
2018-09-18T13:44:36.376Z,23.90
2018-09-18T13:47:04.325Z,23.60
2018-09-18T13:49:32.362Z,23.30
2018-09-18T13:52:00.662Z,23.00
2018-09-18T13:54:28.865Z,22.70
2018-09-18T13:56:57.387Z,22.50
2018-09-18T13:59:25.507Z,22.40
2018-09-18T14:01:53.838Z,22.20
2018-09-18T14:04:22.848Z,22.10
2018-09-18T14:06:51.140Z,22.10
2018-09-18T14:09:20.230Z,22.00
2018-09-18T14:11:48.253Z,22.10
2018-09-18T14:14:16.833Z,22.00
2018-09-18T14:16:44.928Z,21.90
2018-09-18T14:19:13.096Z,21.80
2018-09-18T14:21:42.654Z,21.80
2018-09-18T14:24:10.773Z,21.80
2018-09-18T14:26:39.153Z,21.70
2018-09-18T14:29:07.133Z,21.80
2018-09-18T14:31:35.345Z,21.70
2018-09-18T14:34:04.747Z,21.80
2018-09-18T14:36:32.881Z,21.70
2018-09-18T14:39:02.718Z,21.60
2018-09-18T14:41:31.225Z,21.60
2018-09-18T14:43:59.754Z,21.60
2018-09-18T14:46:27.663Z,21.60
2018-09-18T14:48:57.766Z,21.50
2018-09-18T14:51:27.564Z,21.50
2018-09-18T14:53:57.619Z,21.50
2018-09-18T14:56:27.276Z,21.50
2018-09-18T14:58:56.632Z,21.50
2018-09-18T15:01:25.687Z,21.50
2018-09-18T15:03:53.852Z,21.50
2018-09-18T15:06:22.131Z,21.40
2018-09-18T15:08:50.993Z,21.40
2018-09-18T15:11:19.294Z,21.50
2018-09-18T15:13:48.729Z,21.50
2018-09-18T15:16:17.151Z,21.50
2018-09-18T15:18:46.179Z,21.40
2018-09-18T15:21:16.856Z,21.30
2018-09-18T15:23:46.067Z,21.30
2018-09-18T15:26:15.120Z,21.20
2018-09-18T15:28:43.311Z,21.20
2018-09-18T15:31:11.668Z,21.10
2018-09-18T15:33:39.753Z,21.10
2018-09-18T15:38:47.690Z,21.10
2018-09-18T15:41:16.185Z,21.00
2018-09-18T15:43:44.317Z,21.00
2018-09-18T15:46:12.550Z,21.00
2018-09-18T15:48:40.805Z,21.10
2018-09-18T15:51:08.824Z,21.10
2018-09-18T15:53:36.944Z,21.00
2018-09-18T15:56:05.102Z,20.90
2018-09-18T15:58:33.686Z,20.90
2018-09-18T16:01:01.810Z,20.90
2018-09-18T16:03:30.151Z,20.80
2018-09-18T16:05:58.405Z,20.70
2018-09-18T16:08:27.067Z,20.60
2018-09-18T16:10:55.350Z,20.50
2018-09-18T16:13:23.421Z,20.50
2018-09-18T16:15:51.923Z,20.50
2018-09-18T16:18:20.011Z,20.50
2018-09-18T16:20:48.171Z,20.40
2018-09-18T16:23:16.493Z,20.30
2018-09-18T16:25:44.571Z,20.20
2018-09-18T16:28:13.767Z,20.20
2018-09-18T16:30:42.510Z,20.20
2018-09-18T16:33:11.141Z,20.10
2018-09-18T16:35:39.384Z,20.10
2018-09-18T16:38:07.663Z,20.00
2018-09-18T16:40:36.480Z,19.90
2018-09-18T16:43:08.211Z,19.90
2018-09-18T16:45:36.534Z,19.70
2018-09-18T16:48:04.733Z,19.70
2018-09-18T16:50:33.048Z,19.60
2018-09-18T16:53:01.188Z,19.50
2018-09-18T16:55:30.012Z,19.50
2018-09-18T16:57:57.946Z,19.40
2018-09-18T17:00:27.259Z,19.40
2018-09-18T17:02:55.791Z,19.30
2018-09-18T17:05:24.331Z,19.10
2018-09-18T17:07:53.054Z,19.10
2018-09-18T17:10:21.356Z,19.10
2018-09-18T17:12:50.014Z,19.10
2018-09-18T17:15:18.781Z,19.00
2018-09-18T17:17:54.004Z,19.00
2018-09-18T17:20:22.185Z,18.90
2018-09-18T17:22:50.467Z,18.80
2018-09-18T17:25:19.649Z,18.70
2018-09-18T17:27:49.330Z,18.70
2018-09-18T17:30:17.485Z,18.70
2018-09-18T17:32:45.795Z,18.60
2018-09-18T17:35:13.880Z,18.60
2018-09-18T17:37:42.214Z,18.60
2018-09-18T17:40:10.561Z,18.60
2018-09-18T17:42:38.557Z,18.50
2018-09-18T17:45:07.383Z,18.50
2018-09-18T17:47:36.344Z,18.40
2018-09-18T17:50:04.611Z,18.30
2018-09-18T17:52:32.564Z,18.20
2018-09-18T17:55:01.666Z,18.20
2018-09-18T17:57:29.667Z,18.10
2018-09-18T17:59:57.600Z,18.00
2018-09-18T18:02:26.483Z,18.00
2018-09-18T18:04:54.740Z,17.90
2018-09-18T18:07:23.072Z,17.90
2018-09-18T18:09:51.270Z,17.90
2018-09-18T18:12:19.448Z,17.80
2018-09-18T18:14:47.579Z,17.70
2018-09-18T18:17:15.882Z,17.80
2018-09-18T18:19:44.008Z,17.80
2018-09-18T18:22:12.125Z,17.80
2018-09-18T18:24:40.785Z,17.60
2018-09-18T18:27:09.447Z,17.50
2018-09-18T18:29:38.554Z,17.60
2018-09-18T18:32:08.164Z,17.60
2018-09-18T18:34:36.211Z,17.50
2018-09-18T18:37:04.365Z,17.40
2018-09-18T18:39:32.839Z,17.40
2018-09-18T18:42:00.987Z,17.40
2018-09-18T18:44:29.090Z,17.40
2018-09-18T18:46:57.699Z,17.40
2018-09-18T18:49:25.927Z,17.40
2018-09-18T18:51:53.891Z,17.20
2018-09-18T18:54:21.848Z,17.20
2018-09-18T18:56:49.920Z,17.30
2018-09-18T18:59:18.428Z,17.30
2018-09-18T19:01:46.678Z,17.20
2018-09-18T19:04:14.747Z,17.20
2018-09-18T19:06:42.963Z,17.30
2018-09-18T19:09:10.941Z,17.20
2018-09-18T19:11:39.622Z,17.20
2018-09-18T19:14:07.772Z,17.30
2018-09-18T19:16:36.319Z,17.30
2018-09-18T19:19:05.841Z,17.20
2018-09-18T19:21:33.944Z,17.20
2018-09-18T19:24:02.140Z,17.20
2018-09-18T19:26:30.169Z,17.10
2018-09-18T19:28:59.118Z,17.10
2018-09-18T19:31:27.688Z,17.10
2018-09-18T19:33:55.839Z,17.00
2018-09-18T19:36:23.933Z,17.00
2018-09-18T19:38:52.265Z,16.90
2018-09-18T19:41:20.356Z,16.90
2018-09-18T19:43:48.657Z,16.80
2018-09-18T19:46:17.673Z,16.70
2018-09-18T19:48:45.751Z,16.70
2018-09-18T19:51:14.983Z,16.60
2018-09-18T19:53:43.151Z,16.70
2018-09-18T19:56:12.409Z,16.60
2018-09-18T19:58:40.434Z,16.60
2018-09-18T20:01:09.287Z,16.50
2018-09-18T20:03:38.369Z,16.50
2018-09-18T20:06:06.743Z,16.40
2018-09-18T20:08:34.950Z,16.40
2018-09-18T20:11:03.032Z,16.40
2018-09-18T20:13:31.645Z,16.40
2018-09-18T20:15:59.618Z,16.40
2018-09-18T20:18:28.828Z,16.30
2018-09-18T20:20:58.190Z,16.30
2018-09-18T20:23:26.795Z,16.30
2018-09-18T20:25:54.730Z,16.30
2018-09-18T20:28:22.772Z,16.30
2018-09-18T20:30:50.812Z,16.30
2018-09-18T20:33:18.881Z,16.30
2018-09-18T20:35:47.211Z,16.30
2018-09-18T20:38:15.689Z,16.20
2018-09-18T20:40:43.857Z,16.20
2018-09-18T20:43:11.861Z,16.20
2018-09-18T20:45:39.923Z,16.20
2018-09-18T20:48:08.124Z,16.20
2018-09-18T20:50:36.197Z,16.10
2018-09-18T20:53:04.183Z,16.20
2018-09-18T20:55:32.949Z,16.10
2018-09-18T20:58:00.923Z,16.10
2018-09-18T21:00:29.123Z,16.10
2018-09-18T21:02:57.058Z,16.00
2018-09-18T21:05:25.992Z,16.00
2018-09-18T21:07:53.997Z,16.00
2018-09-18T21:10:22.255Z,16.00
2018-09-18T21:12:50.234Z,16.00
2018-09-18T21:15:19.421Z,16.00
2018-09-18T21:17:48.650Z,16.00
2018-09-18T21:20:16.819Z,16.20
2018-09-18T21:22:44.704Z,16.30
2018-09-18T21:25:18.880Z,16.40
2018-09-18T21:27:47.378Z,16.40
2018-09-18T21:30:16.200Z,16.30
2018-09-18T21:32:44.147Z,16.30
2018-09-18T21:35:12.178Z,16.30
2018-09-18T21:37:40.994Z,16.40
2018-09-18T21:40:09.205Z,16.40
2018-09-18T21:42:37.522Z,16.30
2018-09-18T21:45:05.600Z,16.40
2018-09-18T21:47:33.540Z,16.50
2018-09-18T21:50:01.581Z,16.60
2018-09-18T21:52:29.582Z,16.70
2018-09-18T21:54:57.549Z,16.70
2018-09-18T21:57:25.508Z,16.90
2018-09-18T21:59:53.387Z,17.10
2018-09-18T22:02:21.413Z,17.20
2018-09-18T22:04:49.305Z,17.40
2018-09-18T22:07:17.355Z,17.50
2018-09-18T22:09:45.288Z,17.50
2018-09-18T22:12:13.832Z,17.60
2018-09-18T22:14:41.815Z,17.70
2018-09-18T22:17:09.790Z,17.80
2018-09-18T22:19:38.393Z,17.80
2018-09-18T22:22:06.725Z,18.00
2018-09-18T22:24:34.742Z,18.00
2018-09-18T22:27:03.408Z,18.00
2018-09-18T22:29:32.528Z,18.00
2018-09-18T22:32:00.477Z,18.10
2018-09-18T22:34:28.490Z,18.20
2018-09-18T22:36:56.416Z,18.30
2018-09-18T22:39:24.410Z,18.30
2018-09-18T22:41:52.433Z,18.30
2018-09-18T22:44:20.337Z,18.30
2018-09-18T22:46:48.378Z,18.40
2018-09-18T22:49:16.535Z,18.40
2018-09-18T22:51:44.511Z,18.40
2018-09-18T22:54:12.585Z,18.40
2018-09-18T22:56:40.554Z,18.40
2018-09-18T22:59:08.685Z,18.40
2018-09-18T23:01:36.725Z,18.30
2018-09-18T23:04:04.811Z,18.30
2018-09-18T23:06:32.871Z,18.20
2018-09-18T23:09:00.907Z,18.30
2018-09-18T23:11:29.120Z,18.20
2018-09-18T23:13:57.189Z,18.20
2018-09-18T23:16:26.038Z,18.20
2018-09-18T23:18:54.190Z,18.20
2018-09-18T23:21:22.344Z,18.10
2018-09-18T23:23:51.130Z,18.10
2018-09-18T23:26:19.177Z,18.00
2018-09-18T23:28:47.119Z,18.00
2018-09-18T23:31:15.220Z,17.90
2018-09-18T23:33:43.288Z,17.90
2018-09-18T23:36:11.603Z,17.90
2018-09-18T23:38:39.700Z,17.80
2018-09-18T23:41:07.613Z,17.70
2018-09-18T23:43:35.512Z,17.70
2018-09-18T23:46:03.483Z,17.70
2018-09-18T23:48:31.365Z,17.60
2018-09-18T23:50:59.278Z,17.50
2018-09-18T23:53:27.236Z,17.50
2018-09-18T23:55:55.753Z,17.50
2018-09-18T23:58:23.794Z,17.40
